Wake Island, Hawaii
Current Conditions -  °F | °C
As of 2:43 AM on Saturday 22 Nov 2014 (Local Time) from PWAK Reporting Station
Broken Clouds Broken Clouds  
Wind Chill: 81°   Ceiling: 4900
Heat Index: 86°   Visibility: 6mi
Dew Point: 75°   Wind: 18mph
Humidity: 84%   Direction: 70°ENE
Pressure: 30"   Gusts: NA
Location:  19.2833°N, 166.6°E
Report Text: PWAK 221443Z AUTO 07016KT 9999 SCT017 SCT022 SCT040 BKN049 27/24 A3000 RMK AO2
Loading
Personal Weather Stations






























Interactive Weather Map New forecast layout! Learn more

10-Day Weather Forecast

Advertisements
Track Severe Weather on mobile